sensor_id;sensor_type;location;lat;lon;timestamp;P1;durP1;ratioP1;P2;durP2;ratioP2
12451;SDS011;72521;48.924;12.204;2023-09-07T00:02:24;9.35;;;5.63;;
12451;SDS011;72521;48.924;12.204;2023-09-07T00:07:40;6.32;;;5.78;;
12451;SDS011;72521;48.924;12.204;2023-09-07T00:12:43;9.15;;;5.97;;
12451;SDS011;72521;48.924;12.204;2023-09-07T00:17:48;7.47;;;5.53;;
12451;SDS011;72521;48.924;12.204;2023-09-07T00:22:52;7.18;;;6.05;;
12451;SDS011;72521;48.924;12.204;2023-09-07T00:27:56;10.18;;;6.47;;
12451;SDS011;72521;48.924;12.204;2023-09-07T00:33:00;7.63;;;6.00;;
12451;SDS011;72521;48.924;12.204;2023-09-07T00:38:03;6.45;;;5.85;;
12451;SDS011;72521;48.924;12.204;2023-09-07T00:43:06;7.13;;;6.00;;
12451;SDS011;72521;48.924;12.204;2023-09-07T00:48:12;5.75;;;5.25;;
12451;SDS011;72521;48.924;12.204;2023-09-07T00:53:17;6.50;;;5.45;;
12451;SDS011;72521;48.924;12.204;2023-09-07T00:58:21;5.72;;;5.22;;
12451;SDS011;72521;48.924;12.204;2023-09-07T01:03:25;5.93;;;5.32;;
12451;SDS011;72521;48.924;12.204;2023-09-07T01:08:31;6.38;;;5.78;;
12451;SDS011;72521;48.924;12.204;2023-09-07T01:13:38;6.72;;;6.03;;
12451;SDS011;72521;48.924;12.204;2023-09-07T01:18:42;6.30;;;5.70;;
12451;SDS011;72521;48.924;12.204;2023-09-07T01:23:47;6.78;;;5.72;;
12451;SDS011;72521;48.924;12.204;2023-09-07T01:28:53;8.55;;;5.40;;
12451;SDS011;72521;48.924;12.204;2023-09-07T01:33:56;6.22;;;5.63;;
12451;SDS011;72521;48.924;12.204;2023-09-07T01:39:01;6.45;;;5.90;;
12451;SDS011;72521;48.924;12.204;2023-09-07T01:44:05;6.65;;;6.05;;
12451;SDS011;72521;48.924;12.204;2023-09-07T01:49:09;6.80;;;6.20;;
12451;SDS011;72521;48.924;12.204;2023-09-07T01:54:13;9.07;;;6.38;;
12451;SDS011;72521;48.924;12.204;2023-09-07T01:59:16;6.85;;;6.25;;
12451;SDS011;72521;48.924;12.204;2023-09-07T02:04:20;8.15;;;6.43;;
12451;SDS011;72521;48.924;12.204;2023-09-07T02:09:25;6.70;;;6.10;;
12451;SDS011;72521;48.924;12.204;2023-09-07T02:14:28;7.00;;;6.30;;
12451;SDS011;72521;48.924;12.204;2023-09-07T02:19:32;7.00;;;6.38;;
12451;SDS011;72521;48.924;12.204;2023-09-07T02:24:36;7.50;;;6.80;;
12451;SDS011;72521;48.924;12.204;2023-09-07T02:29:39;7.38;;;6.68;;
12451;SDS011;72521;48.924;12.204;2023-09-07T02:34:42;6.40;;;5.80;;
12451;SDS011;72521;48.924;12.204;2023-09-07T02:39:47;6.82;;;6.13;;
12451;SDS011;72521;48.924;12.204;2023-09-07T02:44:50;9.60;;;6.47;;
12451;SDS011;72521;48.924;12.204;2023-09-07T02:49:54;7.13;;;6.18;;
12451;SDS011;72521;48.924;12.204;2023-09-07T02:54:58;8.30;;;5.82;;
12451;SDS011;72521;48.924;12.204;2023-09-07T03:00:01;6.90;;;6.05;;
12451;SDS011;72521;48.924;12.204;2023-09-07T03:05:11;9.45;;;6.30;;
12451;SDS011;72521;48.924;12.204;2023-09-07T03:10:16;7.68;;;6.15;;
12451;SDS011;72521;48.924;12.204;2023-09-07T03:15:20;6.00;;;5.50;;
12451;SDS011;72521;48.924;12.204;2023-09-07T03:20:23;7.20;;;6.50;;
12451;SDS011;72521;48.924;12.204;2023-09-07T03:25:28;6.82;;;6.15;;
12451;SDS011;72521;48.924;12.204;2023-09-07T03:30:31;6.53;;;5.93;;
12451;SDS011;72521;48.924;12.204;2023-09-07T03:35:36;7.63;;;6.78;;
12451;SDS011;72521;48.924;12.204;2023-09-07T03:40:40;7.45;;;6.55;;
12451;SDS011;72521;48.924;12.204;2023-09-07T03:45:44;8.18;;;6.85;;
12451;SDS011;72521;48.924;12.204;2023-09-07T03:50:47;7.15;;;6.30;;
12451;SDS011;72521;48.924;12.204;2023-09-07T03:55:52;8.55;;;6.97;;
12451;SDS011;72521;48.924;12.204;2023-09-07T04:00:58;7.10;;;6.40;;
12451;SDS011;72521;48.924;12.204;2023-09-07T04:06:03;7.30;;;6.07;;
12451;SDS011;72521;48.924;12.204;2023-09-07T04:11:09;8.90;;;6.47;;
12451;SDS011;72521;48.924;12.204;2023-09-07T04:16:12;6.65;;;5.72;;
12451;SDS011;72521;48.924;12.204;2023-09-07T04:21:15;8.10;;;6.60;;
12451;SDS011;72521;48.924;12.204;2023-09-07T04:26:20;7.00;;;6.40;;
12451;SDS011;72521;48.924;12.204;2023-09-07T04:31:23;6.90;;;6.30;;
12451;SDS011;72521;48.924;12.204;2023-09-07T04:36:29;6.80;;;6.20;;
12451;SDS011;72521;48.924;12.204;2023-09-07T04:41:33;6.97;;;6.35;;
12451;SDS011;72521;48.924;12.204;2023-09-07T04:46:37;7.18;;;6.35;;
12451;SDS011;72521;48.924;12.204;2023-09-07T04:51:40;7.72;;;6.68;;
12451;SDS011;72521;48.924;12.204;2023-09-07T04:56:45;7.97;;;6.53;;
12451;SDS011;72521;48.924;12.204;2023-09-07T05:01:48;8.27;;;6.53;;
12451;SDS011;72521;48.924;12.204;2023-09-07T05:06:52;6.55;;;5.95;;
12451;SDS011;72521;48.924;12.204;2023-09-07T05:11:56;7.22;;;5.78;;
12451;SDS011;72521;48.924;12.204;2023-09-07T05:17:00;6.97;;;6.28;;
12451;SDS011;72521;48.924;12.204;2023-09-07T05:22:05;6.25;;;5.60;;
12451;SDS011;72521;48.924;12.204;2023-09-07T05:27:09;6.20;;;5.60;;
12451;SDS011;72521;48.924;12.204;2023-09-07T05:32:12;7.30;;;5.90;;
12451;SDS011;72521;48.924;12.204;2023-09-07T05:37:15;6.28;;;5.38;;
12451;SDS011;72521;48.924;12.204;2023-09-07T05:42:20;6.47;;;5.00;;
12451;SDS011;72521;48.924;12.204;2023-09-07T05:47:23;5.40;;;4.90;;
12451;SDS011;72521;48.924;12.204;2023-09-07T05:52:28;5.38;;;4.63;;
12451;SDS011;72521;48.924;12.204;2023-09-07T05:57:33;5.32;;;4.60;;
12451;SDS011;72521;48.924;12.204;2023-09-07T06:02:36;6.85;;;4.97;;
12451;SDS011;72521;48.924;12.204;2023-09-07T06:07:43;5.53;;;5.03;;
12451;SDS011;72521;48.924;12.204;2023-09-07T06:12:49;5.68;;;5.18;;
12451;SDS011;72521;48.924;12.204;2023-09-07T06:17:54;6.95;;;5.07;;
12451;SDS011;72521;48.924;12.204;2023-09-07T06:22:57;6.88;;;5.15;;
12451;SDS011;72521;48.924;12.204;2023-09-07T06:28:02;6.85;;;6.15;;
12451;SDS011;72521;48.924;12.204;2023-09-07T06:33:05;8.48;;;5.07;;
12451;SDS011;72521;48.924;12.204;2023-09-07T06:38:09;5.70;;;5.15;;
12451;SDS011;72521;48.924;12.204;2023-09-07T06:43:17;5.57;;;5.07;;
12451;SDS011;72521;48.924;12.204;2023-09-07T06:48:22;8.20;;;5.30;;
12451;SDS011;72521;48.924;12.204;2023-09-07T06:53:25;4.97;;;4.47;;
12451;SDS011;72521;48.924;12.204;2023-09-07T06:58:49;15.15;;;4.63;;
12451;SDS011;72521;48.924;12.204;2023-09-07T07:03:53;7.75;;;4.10;;
12451;SDS011;72521;48.924;12.204;2023-09-07T07:08:59;5.43;;;3.90;;
12451;SDS011;72521;48.924;12.204;2023-09-07T07:14:05;4.22;;;3.55;;
12451;SDS011;72521;48.924;12.204;2023-09-07T07:19:10;6.57;;;3.50;;
12451;SDS011;72521;48.924;12.204;2023-09-07T07:24:13;4.40;;;4.00;;
12451;SDS011;72521;48.924;12.204;2023-09-07T07:29:18;4.78;;;3.70;;
12451;SDS011;72521;48.924;12.204;2023-09-07T07:34:21;7.88;;;4.00;;
12451;SDS011;72521;48.924;12.204;2023-09-07T07:39:25;4.57;;;3.85;;
12451;SDS011;72521;48.924;12.204;2023-09-07T07:44:29;7.22;;;3.60;;
12451;SDS011;72521;48.924;12.204;2023-09-07T07:49:33;5.70;;;3.58;;
12451;SDS011;72521;48.924;12.204;2023-09-07T07:54:37;5.47;;;3.80;;
12451;SDS011;72521;48.924;12.204;2023-09-07T07:59:42;5.07;;;3.53;;
12451;SDS011;72521;48.924;12.204;2023-09-07T08:04:45;4.43;;;3.67;;
12451;SDS011;72521;48.924;12.204;2023-09-07T08:09:49;7.60;;;3.75;;
12451;SDS011;72521;48.924;12.204;2023-09-07T08:14:54;3.38;;;3.08;;
12451;SDS011;72521;48.924;12.204;2023-09-07T08:19:58;3.78;;;2.70;;
12451;SDS011;72521;48.924;12.204;2023-09-07T08:25:01;3.35;;;2.90;;
12451;SDS011;72521;48.924;12.204;2023-09-07T08:30:07;3.58;;;3.28;;
12451;SDS011;72521;48.924;12.204;2023-09-07T08:35:11;4.65;;;3.30;;
12451;SDS011;72521;48.924;12.204;2023-09-07T08:40:15;3.53;;;2.75;;
12451;SDS011;72521;48.924;12.204;2023-09-07T08:45:21;2.63;;;2.42;;
12451;SDS011;72521;48.924;12.204;2023-09-07T08:50:25;3.42;;;2.58;;
12451;SDS011;72521;48.924;12.204;2023-09-07T08:55:28;3.95;;;2.67;;
12451;SDS011;72521;48.924;12.204;2023-09-07T09:00:33;6.35;;;2.53;;
12451;SDS011;72521;48.924;12.204;2023-09-07T09:05:38;3.75;;;2.70;;
12451;SDS011;72521;48.924;12.204;2023-09-07T09:10:42;3.35;;;2.70;;
12451;SDS011;72521;48.924;12.204;2023-09-07T09:15:48;4.15;;;2.60;;
12451;SDS011;72521;48.924;12.204;2023-09-07T09:20:52;2.67;;;2.30;;
12451;SDS011;72521;48.924;12.204;2023-09-07T09:25:55;2.70;;;2.45;;
12451;SDS011;72521;48.924;12.204;2023-09-07T09:30:59;3.53;;;2.20;;
12451;SDS011;72521;48.924;12.204;2023-09-07T09:36:03;2.58;;;2.38;;
12451;SDS011;72521;48.924;12.204;2023-09-07T09:41:08;3.42;;;2.47;;
12451;SDS011;72521;48.924;12.204;2023-09-07T09:46:13;2.60;;;2.38;;
12451;SDS011;72521;48.924;12.204;2023-09-07T09:51:18;3.00;;;2.42;;
12451;SDS011;72521;48.924;12.204;2023-09-07T09:56:21;2.65;;;2.45;;
12451;SDS011;72521;48.924;12.204;2023-09-07T10:01:25;3.97;;;2.42;;
12451;SDS011;72521;48.924;12.204;2023-09-07T10:06:30;3.78;;;2.30;;
12451;SDS011;72521;48.924;12.204;2023-09-07T10:11:34;2.65;;;2.45;;
12451;SDS011;72521;48.924;12.204;2023-09-07T10:16:43;2.47;;;2.15;;
12451;SDS011;72521;48.924;12.204;2023-09-07T10:21:48;4.30;;;2.47;;
12451;SDS011;72521;48.924;12.204;2023-09-07T10:26:58;3.72;;;2.38;;
12451;SDS011;72521;48.924;12.204;2023-09-07T10:32:06;4.90;;;2.45;;
12451;SDS011;72521;48.924;12.204;2023-09-07T10:37:10;3.20;;;2.90;;
12451;SDS011;72521;48.924;12.204;2023-09-07T10:42:21;3.38;;;2.58;;
12451;SDS011;72521;48.924;12.204;2023-09-07T10:47:27;2.83;;;2.50;;
12451;SDS011;72521;48.924;12.204;2023-09-07T10:52:30;4.18;;;2.55;;
12451;SDS011;72521;48.924;12.204;2023-09-07T10:57:42;2.47;;;2.13;;
12451;SDS011;72521;48.924;12.204;2023-09-07T11:02:47;2.78;;;2.58;;
12451;SDS011;72521;48.924;12.204;2023-09-07T11:07:51;2.83;;;2.50;;
12451;SDS011;72521;48.924;12.204;2023-09-07T11:12:54;2.88;;;2.58;;
12451;SDS011;72521;48.924;12.204;2023-09-07T11:17:58;4.18;;;2.95;;
12451;SDS011;72521;48.924;12.204;2023-09-07T11:23:06;2.70;;;2.50;;
12451;SDS011;72521;48.924;12.204;2023-09-07T11:28:09;2.75;;;2.55;;
12451;SDS011;72521;48.924;12.204;2023-09-07T11:33:15;2.85;;;2.33;;
12451;SDS011;72521;48.924;12.204;2023-09-07T11:38:18;4.60;;;2.60;;
12451;SDS011;72521;48.924;12.204;2023-09-07T11:43:22;4.35;;;2.53;;
12451;SDS011;72521;48.924;12.204;2023-09-07T11:48:26;2.88;;;2.53;;
12451;SDS011;72521;48.924;12.204;2023-09-07T11:53:30;3.47;;;2.80;;
12451;SDS011;72521;48.924;12.204;2023-09-07T11:58:34;4.55;;;2.67;;
12451;SDS011;72521;48.924;12.204;2023-09-07T12:03:39;3.85;;;2.70;;
12451;SDS011;72521;48.924;12.204;2023-09-07T12:08:42;2.75;;;2.55;;
12451;SDS011;72521;48.924;12.204;2023-09-07T12:14:01;3.00;;;2.60;;
12451;SDS011;72521;48.924;12.204;2023-09-07T12:19:06;2.97;;;2.67;;
12451;SDS011;72521;48.924;12.204;2023-09-07T12:24:10;5.75;;;2.63;;
12451;SDS011;72521;48.924;12.204;2023-09-07T12:29:14;3.75;;;2.70;;
12451;SDS011;72521;48.924;12.204;2023-09-07T12:34:18;2.88;;;2.67;;
12451;SDS011;72521;48.924;12.204;2023-09-07T12:39:22;4.78;;;2.90;;
12451;SDS011;72521;48.924;12.204;2023-09-07T12:44:25;3.00;;;2.70;;
12451;SDS011;72521;48.924;12.204;2023-09-07T12:49:30;2.92;;;2.50;;
12451;SDS011;72521;48.924;12.204;2023-09-07T12:54:33;2.70;;;2.50;;
12451;SDS011;72521;48.924;12.204;2023-09-07T12:59:36;4.03;;;2.60;;
12451;SDS011;72521;48.924;12.204;2023-09-07T13:04:41;3.00;;;2.70;;
12451;SDS011;72521;48.924;12.204;2023-09-07T13:09:44;3.03;;;2.72;;
12451;SDS011;72521;48.924;12.204;2023-09-07T13:14:47;6.85;;;2.92;;
12451;SDS011;72521;48.924;12.204;2023-09-07T13:19:52;3.58;;;2.60;;
12451;SDS011;72521;48.924;12.204;2023-09-07T13:24:55;3.88;;;2.47;;
12451;SDS011;72521;48.924;12.204;2023-09-07T13:29:59;3.35;;;2.88;;
12451;SDS011;72521;48.924;12.204;2023-09-07T13:35:05;2.83;;;2.55;;
12451;SDS011;72521;48.924;12.204;2023-09-07T13:40:08;5.13;;;2.83;;
12451;SDS011;72521;48.924;12.204;2023-09-07T13:45:12;3.55;;;2.58;;
12451;SDS011;72521;48.924;12.204;2023-09-07T13:50:16;2.55;;;2.35;;
12451;SDS011;72521;48.924;12.204;2023-09-07T13:55:20;4.28;;;2.88;;
12451;SDS011;72521;48.924;12.204;2023-09-07T14:00:23;4.32;;;2.72;;
12451;SDS011;72521;48.924;12.204;2023-09-07T14:05:27;4.47;;;2.58;;
12451;SDS011;72521;48.924;12.204;2023-09-07T14:10:31;3.65;;;2.80;;
12451;SDS011;72521;48.924;12.204;2023-09-07T14:15:34;4.35;;;2.85;;
12451;SDS011;72521;48.924;12.204;2023-09-07T14:20:38;3.92;;;2.80;;
12451;SDS011;72521;48.924;12.204;2023-09-07T14:25:41;4.90;;;3.22;;
12451;SDS011;72521;48.924;12.204;2023-09-07T14:30:46;3.80;;;2.72;;
12451;SDS011;72521;48.924;12.204;2023-09-07T14:35:52;4.95;;;2.92;;
12451;SDS011;72521;48.924;12.204;2023-09-07T14:40:56;2.83;;;2.60;;
12451;SDS011;72521;48.924;12.204;2023-09-07T14:45:59;5.07;;;2.88;;
12451;SDS011;72521;48.924;12.204;2023-09-07T14:51:04;3.40;;;2.88;;
12451;SDS011;72521;48.924;12.204;2023-09-07T14:56:07;3.47;;;2.75;;
12451;SDS011;72521;48.924;12.204;2023-09-07T15:01:10;4.07;;;2.80;;
12451;SDS011;72521;48.924;12.204;2023-09-07T15:06:15;2.92;;;2.63;;
12451;SDS011;72521;48.924;12.204;2023-09-07T15:11:20;3.42;;;2.83;;
12451;SDS011;72521;48.924;12.204;2023-09-07T15:16:24;4.05;;;2.88;;
12451;SDS011;72521;48.924;12.204;2023-09-07T15:21:28;3.00;;;2.70;;
12451;SDS011;72521;48.924;12.204;2023-09-07T15:26:39;3.55;;;3.05;;
12451;SDS011;72521;48.924;12.204;2023-09-07T15:31:43;7.03;;;3.22;;
12451;SDS011;72521;48.924;12.204;2023-09-07T15:36:47;3.42;;;3.08;;
12451;SDS011;72521;48.924;12.204;2023-09-07T15:41:51;4.53;;;2.80;;
12451;SDS011;72521;48.924;12.204;2023-09-07T15:46:55;5.75;;;3.10;;
12451;SDS011;72521;48.924;12.204;2023-09-07T15:52:00;4.15;;;3.33;;
12451;SDS011;72521;48.924;12.204;2023-09-07T15:57:04;6.47;;;3.15;;
12451;SDS011;72521;48.924;12.204;2023-09-07T16:02:07;4.68;;;3.10;;
12451;SDS011;72521;48.924;12.204;2023-09-07T16:07:12;5.00;;;2.55;;
12451;SDS011;72521;48.924;12.204;2023-09-07T16:12:15;6.30;;;3.10;;
12451;SDS011;72521;48.924;12.204;2023-09-07T16:17:18;5.90;;;3.40;;
12451;SDS011;72521;48.924;12.204;2023-09-07T16:22:26;4.75;;;2.97;;
12451;SDS011;72521;48.924;12.204;2023-09-07T16:27:30;3.83;;;2.92;;
12451;SDS011;72521;48.924;12.204;2023-09-07T16:32:33;5.53;;;2.88;;
12451;SDS011;72521;48.924;12.204;2023-09-07T16:37:37;4.95;;;2.85;;
12451;SDS011;72521;48.924;12.204;2023-09-07T16:42:42;5.40;;;2.88;;
12451;SDS011;72521;48.924;12.204;2023-09-07T16:47:45;5.35;;;3.28;;
12451;SDS011;72521;48.924;12.204;2023-09-07T16:52:50;5.20;;;3.28;;
12451;SDS011;72521;48.924;12.204;2023-09-07T16:57:55;4.93;;;2.83;;
12451;SDS011;72521;48.924;12.204;2023-09-07T17:02:58;3.53;;;3.10;;
12451;SDS011;72521;48.924;12.204;2023-09-07T17:08:04;4.50;;;3.47;;
12451;SDS011;72521;48.924;12.204;2023-09-07T17:13:08;6.95;;;3.60;;
12451;SDS011;72521;48.924;12.204;2023-09-07T17:18:11;3.67;;;3.30;;
12451;SDS011;72521;48.924;12.204;2023-09-07T17:23:16;5.40;;;3.28;;
12451;SDS011;72521;48.924;12.204;2023-09-07T17:28:19;6.35;;;3.55;;
12451;SDS011;72521;48.924;12.204;2023-09-07T17:33:22;4.55;;;3.33;;
12451;SDS011;72521;48.924;12.204;2023-09-07T17:38:29;6.38;;;3.42;;
12451;SDS011;72521;48.924;12.204;2023-09-07T17:43:32;5.55;;;3.42;;
12451;SDS011;72521;48.924;12.204;2023-09-07T17:48:35;4.13;;;3.72;;
12451;SDS011;72521;48.924;12.204;2023-09-07T17:53:40;4.32;;;3.38;;
12451;SDS011;72521;48.924;12.204;2023-09-07T17:58:44;3.78;;;3.38;;
12451;SDS011;72521;48.924;12.204;2023-09-07T18:03:48;7.75;;;3.53;;
12451;SDS011;72521;48.924;12.204;2023-09-07T18:08:52;3.95;;;3.28;;
12451;SDS011;72521;48.924;12.204;2023-09-07T18:13:55;6.43;;;3.80;;
12451;SDS011;72521;48.924;12.204;2023-09-07T18:19:13;5.07;;;3.97;;
12451;SDS011;72521;48.924;12.204;2023-09-07T18:24:18;6.35;;;4.00;;
12451;SDS011;72521;48.924;12.204;2023-09-07T18:29:21;4.20;;;3.80;;
12451;SDS011;72521;48.924;12.204;2023-09-07T18:34:24;5.30;;;3.83;;
12451;SDS011;72521;48.924;12.204;2023-09-07T18:39:29;5.95;;;3.67;;
12451;SDS011;72521;48.924;12.204;2023-09-07T18:44:34;4.65;;;4.22;;
12451;SDS011;72521;48.924;12.204;2023-09-07T18:49:37;4.70;;;4.30;;
12451;SDS011;72521;48.924;12.204;2023-09-07T18:54:42;5.63;;;4.90;;
12451;SDS011;72521;48.924;12.204;2023-09-07T18:59:45;7.50;;;5.22;;
12451;SDS011;72521;48.924;12.204;2023-09-07T19:04:50;7.47;;;6.82;;
12451;SDS011;72521;48.924;12.204;2023-09-07T19:09:54;5.57;;;5.07;;
12451;SDS011;72521;48.924;12.204;2023-09-07T19:14:58;7.63;;;4.30;;
12451;SDS011;72521;48.924;12.204;2023-09-07T19:20:01;7.07;;;5.35;;
12451;SDS011;72521;48.924;12.204;2023-09-07T19:25:05;6.20;;;5.53;;
12451;SDS011;72521;48.924;12.204;2023-09-07T19:30:09;10.23;;;7.68;;
12451;SDS011;72521;48.924;12.204;2023-09-07T19:35:12;8.68;;;6.82;;
12451;SDS011;72521;48.924;12.204;2023-09-07T19:40:20;7.32;;;5.82;;
12451;SDS011;72521;48.924;12.204;2023-09-07T19:45:23;10.18;;;7.05;;
12451;SDS011;72521;48.924;12.204;2023-09-07T19:50:26;7.00;;;5.55;;
12451;SDS011;72521;48.924;12.204;2023-09-07T19:55:30;5.07;;;4.57;;
12451;SDS011;72521;48.924;12.204;2023-09-07T20:00:33;4.95;;;4.00;;
12451;SDS011;72521;48.924;12.204;2023-09-07T20:05:37;5.00;;;3.70;;
12451;SDS011;72521;48.924;12.204;2023-09-07T20:10:41;5.88;;;4.00;;
12451;SDS011;72521;48.924;12.204;2023-09-07T20:15:44;4.20;;;3.60;;
12451;SDS011;72521;48.924;12.204;2023-09-07T20:20:47;4.90;;;4.40;;
12451;SDS011;72521;48.924;12.204;2023-09-07T20:25:53;4.30;;;3.88;;
12451;SDS011;72521;48.924;12.204;2023-09-07T20:30:56;5.13;;;4.22;;
12451;SDS011;72521;48.924;12.204;2023-09-07T20:35:59;5.47;;;4.43;;
12451;SDS011;72521;48.924;12.204;2023-09-07T20:41:04;5.07;;;4.55;;
12451;SDS011;72521;48.924;12.204;2023-09-07T20:46:08;5.85;;;4.35;;
12451;SDS011;72521;48.924;12.204;2023-09-07T20:51:12;4.72;;;3.75;;
12451;SDS011;72521;48.924;12.204;2023-09-07T20:56:16;4.95;;;4.55;;
12451;SDS011;72521;48.924;12.204;2023-09-07T21:01:19;4.95;;;4.38;;
12451;SDS011;72521;48.924;12.204;2023-09-07T21:06:23;4.93;;;4.43;;
12451;SDS011;72521;48.924;12.204;2023-09-07T21:11:27;4.65;;;4.20;;
12451;SDS011;72521;48.924;12.204;2023-09-07T21:16:30;5.40;;;4.60;;
12451;SDS011;72521;48.924;12.204;2023-09-07T21:21:34;4.50;;;4.10;;
12451;SDS011;72521;48.924;12.204;2023-09-07T21:26:39;5.03;;;4.20;;
12451;SDS011;72521;48.924;12.204;2023-09-07T21:31:42;4.80;;;4.13;;
12451;SDS011;72521;48.924;12.204;2023-09-07T21:36:46;4.78;;;4.22;;
12451;SDS011;72521;48.924;12.204;2023-09-07T21:41:52;6.20;;;4.25;;
12451;SDS011;72521;48.924;12.204;2023-09-07T21:46:57;4.47;;;4.07;;
12451;SDS011;72521;48.924;12.204;2023-09-07T21:52:01;5.07;;;4.22;;
12451;SDS011;72521;48.924;12.204;2023-09-07T21:57:06;6.60;;;4.20;;
12451;SDS011;72521;48.924;12.204;2023-09-07T22:02:10;4.82;;;4.40;;
12451;SDS011;72521;48.924;12.204;2023-09-07T22:07:13;4.90;;;3.85;;
12451;SDS011;72521;48.924;12.204;2023-09-07T22:12:17;5.82;;;4.88;;
12451;SDS011;72521;48.924;12.204;2023-09-07T22:17:20;5.40;;;4.72;;
12451;SDS011;72521;48.924;12.204;2023-09-07T22:22:24;5.80;;;4.55;;
12451;SDS011;72521;48.924;12.204;2023-09-07T22:27:29;5.13;;;4.63;;
12451;SDS011;72521;48.924;12.204;2023-09-07T22:32:32;6.30;;;4.55;;
12451;SDS011;72521;48.924;12.204;2023-09-07T22:37:35;6.85;;;4.70;;
12451;SDS011;72521;48.924;12.204;2023-09-07T22:42:40;6.22;;;5.13;;
12451;SDS011;72521;48.924;12.204;2023-09-07T22:47:43;5.78;;;4.63;;
12451;SDS011;72521;48.924;12.204;2023-09-07T22:52:47;6.15;;;4.72;;
12451;SDS011;72521;48.924;12.204;2023-09-07T22:57:52;7.57;;;5.60;;
12451;SDS011;72521;48.924;12.204;2023-09-07T23:02:55;5.40;;;4.90;;
12451;SDS011;72521;48.924;12.204;2023-09-07T23:07:58;7.22;;;5.32;;
12451;SDS011;72521;48.924;12.204;2023-09-07T23:13:03;7.22;;;5.03;;
12451;SDS011;72521;48.924;12.204;2023-09-07T23:18:07;5.65;;;5.10;;
12451;SDS011;72521;48.924;12.204;2023-09-07T23:23:11;5.80;;;5.22;;
12451;SDS011;72521;48.924;12.204;2023-09-07T23:28:15;7.30;;;5.10;;
12451;SDS011;72521;48.924;12.204;2023-09-07T23:33:19;5.88;;;5.32;;
12451;SDS011;72521;48.924;12.204;2023-09-07T23:38:23;6.00;;;5.38;;
12451;SDS011;72521;48.924;12.204;2023-09-07T23:43:27;5.53;;;5.03;;
12451;SDS011;72521;48.924;12.204;2023-09-07T23:48:30;8.02;;;5.53;;
12451;SDS011;72521;48.924;12.204;2023-09-07T23:53:34;6.20;;;5.60;;
12451;SDS011;72521;48.924;12.204;2023-09-07T23:58:38;8.43;;;5.32;;
